createdAt,value
2023-03-26T00:00:21.607Z,9.80
2023-03-26T00:04:25.485Z,9.80
2023-03-26T00:08:27.273Z,9.80
2023-03-26T00:12:29.069Z,9.80
2023-03-26T00:16:31.609Z,9.80
2023-03-26T00:20:33.414Z,9.80
2023-03-26T00:24:37.545Z,9.80
2023-03-26T00:28:40.845Z,9.90
2023-03-26T00:32:53.652Z,9.90
2023-03-26T00:36:55.934Z,9.90
2023-03-26T00:41:05.957Z,9.90
2023-03-26T00:45:08.334Z,9.90
2023-03-26T00:49:11.066Z,9.90
2023-03-26T00:53:13.940Z,9.80
2023-03-26T00:57:25.634Z,9.70
2023-03-26T01:01:32.530Z,9.60
2023-03-26T01:05:34.417Z,9.70
2023-03-26T01:09:43.056Z,9.60
2023-03-26T01:13:54.609Z,9.70
2023-03-26T01:17:59.669Z,9.70
2023-03-26T01:22:01.862Z,9.80
2023-03-26T01:26:44.112Z,9.80
2023-03-26T01:31:29.911Z,9.80
2023-03-26T01:35:52.116Z,9.70
2023-03-26T01:40:07.100Z,9.70
2023-03-26T01:44:32.141Z,9.60
2023-03-26T01:48:40.479Z,9.50
2023-03-26T01:52:42.322Z,9.50
2023-03-26T01:57:06.004Z,9.50
2023-03-26T02:01:45.078Z,9.30
2023-03-26T02:05:57.973Z,9.20
2023-03-26T02:10:30.357Z,9.10
2023-03-26T02:14:45.360Z,9.10
2023-03-26T02:18:51.279Z,9.00
2023-03-26T02:22:59.368Z,8.90
2023-03-26T02:27:05.390Z,8.90
2023-03-26T02:31:09.775Z,9.00
2023-03-26T02:35:12.899Z,9.00
2023-03-26T02:39:14.874Z,9.00
2023-03-26T02:43:17.017Z,9.00
2023-03-26T02:47:19.113Z,9.00
2023-03-26T02:51:21.179Z,8.90
2023-03-26T02:55:22.959Z,8.90
2023-03-26T02:59:24.702Z,8.90
2023-03-26T03:03:27.187Z,8.90
2023-03-26T03:07:29.186Z,8.90
2023-03-26T03:11:33.485Z,9.00
2023-03-26T03:15:35.709Z,9.00
2023-03-26T03:19:37.876Z,9.00
2023-03-26T03:23:39.604Z,9.10
2023-03-26T03:27:42.880Z,9.00
2023-03-26T03:31:45.753Z,9.00
2023-03-26T03:35:51.952Z,9.00
2023-03-26T03:39:53.909Z,9.00
2023-03-26T03:43:55.731Z,8.90
2023-03-26T03:47:57.568Z,8.90
2023-03-26T03:51:59.404Z,8.80
2023-03-26T03:56:02.115Z,8.90
2023-03-26T04:00:06.299Z,8.90
2023-03-26T04:04:09.449Z,8.90
2023-03-26T04:08:11.420Z,8.80
2023-03-26T04:12:13.321Z,8.70
2023-03-26T04:16:15.379Z,8.70
2023-03-26T04:20:17.994Z,8.70
2023-03-26T04:24:22.408Z,8.70
2023-03-26T04:28:46.558Z,8.80
2023-03-26T04:32:49.199Z,8.80
2023-03-26T04:36:54.677Z,8.90
2023-03-26T04:41:00.850Z,9.00
2023-03-26T04:45:07.157Z,9.00
2023-03-26T04:49:09.220Z,9.10
2023-03-26T04:53:21.380Z,9.10
2023-03-26T04:57:29.554Z,9.10
2023-03-26T05:01:32.273Z,9.00
2023-03-26T05:05:34.114Z,9.10
2023-03-26T05:09:36.605Z,9.10
2023-03-26T05:13:38.866Z,9.20
2023-03-26T05:17:42.631Z,9.20
2023-03-26T05:21:44.587Z,9.30
2023-03-26T05:25:47.172Z,9.20
2023-03-26T05:29:49.111Z,9.20
2023-03-26T05:33:51.148Z,9.10
2023-03-26T05:37:53.112Z,8.90
2023-03-26T05:41:55.013Z,9.00
2023-03-26T05:45:57.155Z,8.90
2023-03-26T05:49:59.304Z,8.90
2023-03-26T05:54:01.202Z,9.00
2023-03-26T05:58:03.413Z,9.00
2023-03-26T06:02:05.211Z,9.00
2023-03-26T06:06:17.717Z,9.10
2023-03-26T06:10:19.699Z,9.20
2023-03-26T06:14:21.681Z,9.40
2023-03-26T06:18:24.259Z,9.60
2023-03-26T06:22:26.475Z,9.70
2023-03-26T06:26:28.381Z,9.80
2023-03-26T06:30:30.471Z,9.90
2023-03-26T06:34:33.046Z,10.00
2023-03-26T06:38:35.010Z,10.10
2023-03-26T06:43:10.162Z,10.20
2023-03-26T06:46:58.869Z,10.40
2023-03-26T06:51:03.405Z,10.50
2023-03-26T06:55:08.724Z,10.60
2023-03-26T06:59:10.529Z,10.70
2023-03-26T07:03:12.516Z,10.70
2023-03-26T07:07:14.452Z,10.70
2023-03-26T07:11:17.120Z,10.80
2023-03-26T07:15:22.560Z,10.90
2023-03-26T07:19:24.868Z,10.90
2023-03-26T07:23:27.395Z,10.90
2023-03-26T07:28:12.389Z,11.00
2023-03-26T07:32:19.363Z,11.10
2023-03-26T07:36:34.326Z,11.20
2023-03-26T07:41:23.052Z,11.40
2023-03-26T07:45:44.047Z,11.40
2023-03-26T07:49:46.516Z,11.50
2023-03-26T07:53:49.776Z,11.60
2023-03-26T07:58:36.590Z,11.70
2023-03-26T08:03:16.082Z,11.90
2023-03-26T08:07:53.797Z,11.90
2023-03-26T08:12:10.842Z,11.80
2023-03-26T08:16:26.836Z,11.90
2023-03-26T08:20:38.441Z,11.70
2023-03-26T08:25:25.533Z,11.80
2023-03-26T08:29:45.411Z,11.60
2023-03-26T08:33:47.776Z,11.60
2023-03-26T08:37:49.730Z,11.60
2023-03-26T08:42:17.286Z,11.70
2023-03-26T08:46:48.985Z,11.80
2023-03-26T08:51:09.915Z,11.90
2023-03-26T08:55:40.655Z,11.70
2023-03-26T09:00:06.020Z,11.70
2023-03-26T09:04:49.899Z,11.80
2023-03-26T09:09:18.834Z,12.00
2023-03-26T09:13:31.612Z,12.10
2023-03-26T09:18:37.048Z,12.20
2023-03-26T09:23:07.977Z,12.30
2023-03-26T09:27:31.336Z,12.40
2023-03-26T09:32:27.198Z,12.60
2023-03-26T09:37:08.111Z,12.80
2023-03-26T09:41:50.931Z,12.70
2023-03-26T09:46:19.394Z,13.10
2023-03-26T09:50:32.917Z,13.40
2023-03-26T09:54:48.455Z,14.00
2023-03-26T09:59:48.029Z,14.40
2023-03-26T10:04:47.193Z,14.80
2023-03-26T10:09:14.158Z,15.40
2023-03-26T10:13:31.119Z,15.20
2023-03-26T10:18:27.136Z,15.40
2023-03-26T10:23:12.065Z,15.20
2023-03-26T10:27:54.507Z,15.10
2023-03-26T10:32:30.346Z,15.20
2023-03-26T10:36:36.975Z,15.20
2023-03-26T10:41:06.855Z,15.40
2023-03-26T10:45:20.885Z,15.60
2023-03-26T10:49:53.669Z,15.60
2023-03-26T10:54:36.113Z,15.90
2023-03-26T10:58:48.531Z,16.40
2023-03-26T11:03:11.872Z,16.60
2023-03-26T11:07:34.849Z,16.80
2023-03-26T11:12:02.956Z,16.80
2023-03-26T11:16:59.559Z,16.50
2023-03-26T11:21:44.328Z,16.70
2023-03-26T11:26:09.134Z,16.70
2023-03-26T11:30:47.530Z,16.80
2023-03-26T11:35:00.135Z,16.70
2023-03-26T11:39:04.781Z,16.40
2023-03-26T11:43:10.764Z,16.10
2023-03-26T11:47:15.129Z,15.90
2023-03-26T11:51:33.281Z,15.80
2023-03-26T11:55:35.629Z,15.70
2023-03-26T11:59:56.502Z,15.70
2023-03-26T12:04:13.687Z,15.70
2023-03-26T12:08:22.620Z,15.80
2023-03-26T12:12:33.566Z,15.80
2023-03-26T12:16:36.278Z,15.70
2023-03-26T12:20:39.024Z,15.60
2023-03-26T12:24:57.330Z,15.50
2023-03-26T12:29:14.646Z,15.50
2023-03-26T12:33:26.226Z,15.50
2023-03-26T12:37:38.794Z,15.60
2023-03-26T12:44:44.261Z,15.60
2023-03-26T12:47:54.819Z,15.60
2023-03-26T12:50:38.180Z,15.60
2023-03-26T12:55:18.905Z,15.80
2023-03-26T12:59:41.890Z,15.60
2023-03-26T13:04:03.483Z,15.60
2023-03-26T13:08:39.709Z,15.50
2023-03-26T13:13:02.364Z,15.50
2023-03-26T13:17:23.051Z,15.30
2023-03-26T13:22:08.313Z,15.20
2023-03-26T13:26:24.726Z,15.10
2023-03-26T13:31:13.839Z,15.20
2023-03-26T13:36:23.746Z,15.20
2023-03-26T13:40:59.298Z,15.10
2023-03-26T13:45:22.713Z,15.20
2023-03-26T13:49:44.990Z,15.30
2023-03-26T13:54:12.371Z,15.20
2023-03-26T13:58:34.251Z,15.30
2023-03-26T14:02:40.989Z,15.20
2023-03-26T14:07:00.399Z,14.90
2023-03-26T14:11:38.114Z,14.60
2023-03-26T14:16:04.354Z,14.10
2023-03-26T14:20:48.888Z,14.00
2023-03-26T14:25:32.834Z,13.90
2023-03-26T14:29:56.681Z,13.50
2023-03-26T14:34:30.373Z,13.20
2023-03-26T14:39:00.603Z,13.00
2023-03-26T14:43:46.627Z,12.80
2023-03-26T14:48:29.466Z,12.70
2023-03-26T14:52:53.114Z,12.50
2023-03-26T14:57:49.851Z,12.50
2023-03-26T15:02:55.980Z,12.30
2023-03-26T15:07:19.929Z,12.20
2023-03-26T15:11:52.297Z,12.20
2023-03-26T15:16:17.860Z,12.20
2023-03-26T15:20:50.436Z,12.10
2023-03-26T15:25:48.003Z,12.00
2023-03-26T15:30:30.572Z,11.80
2023-03-26T15:35:00.615Z,11.50
2023-03-26T15:39:21.085Z,11.40
2023-03-26T15:43:23.143Z,11.20
2023-03-26T15:47:40.402Z,11.20
2023-03-26T15:52:19.278Z,11.00
2023-03-26T15:56:58.709Z,11.10
2023-03-26T16:01:36.703Z,11.10
2023-03-26T16:06:15.962Z,11.00
2023-03-26T16:10:35.042Z,10.90
2023-03-26T16:14:49.241Z,10.90
2023-03-26T16:19:00.854Z,10.80
2023-03-26T16:23:07.219Z,10.80
2023-03-26T16:27:15.657Z,10.80
2023-03-26T16:31:37.229Z,10.80
2023-03-26T16:36:18.587Z,10.70
2023-03-26T16:40:28.668Z,10.80
2023-03-26T16:45:08.571Z,10.80
2023-03-26T16:49:21.742Z,10.80
2023-03-26T16:53:41.868Z,10.80
2023-03-26T16:58:42.541Z,10.70
2023-03-26T22:49:32.982Z,8.40
2023-03-26T22:53:34.996Z,8.40
2023-03-26T22:57:37.271Z,8.50
2023-03-26T23:01:41.386Z,8.50
2023-03-26T23:05:43.276Z,8.40
2023-03-26T23:09:45.721Z,8.30
2023-03-26T23:13:47.974Z,8.30
2023-03-26T23:17:54.559Z,8.20
2023-03-26T23:21:57.556Z,8.20
2023-03-26T23:26:01.946Z,8.20
2023-03-26T23:30:04.852Z,8.10
2023-03-26T23:34:06.768Z,8.10
2023-03-26T23:38:08.712Z,8.10
2023-03-26T23:42:11.629Z,8.20
2023-03-26T23:46:15.561Z,8.40
2023-03-26T23:50:18.099Z,8.50
2023-03-26T23:54:21.607Z,8.60
2023-03-26T23:58:24.654Z,8.60
